Time;durP1;ratioP1;P1;durP2;ratioP2;P2;SDS_P1;SDS_P2;PMS_P1;PMS_P2;Temp;Humidity;BMP_temperature;BMP_pressure;BME280_temperature;BME280_humidity;BME280_pressure;Samples;Min_cycle;Max_cycle;Signal;HPM_P1;HPM_P2
2023/04/23 00:00:50;;;;;;;21.17;11.77;;;7.90;99.90;;;;;;4161981;28;20091;-72
2023/04/23 00:02:53;;;;;;;27.43;13.67;;;7.90;99.90;;;;;;4161564;28;20091;-69
2023/04/23 00:05:01;;;;;;;21.80;12.53;;;7.80;99.90;;;;;;4161106;28;20037;-69
2023/04/23 00:07:03;;;;;;;30.07;13.70;;;7.70;99.90;;;;;;4154056;28;20429;-69
2023/04/23 00:09:06;;;;;;;23.40;13.47;;;7.70;99.90;;;;;;4146321;28;20088;-67
2023/04/23 00:11:08;;;;;;;24.93;13.07;;;7.70;99.90;;;;;;4150884;28;20088;-68
2023/04/23 00:13:10;;;;;;;25.57;12.83;;;7.80;99.90;;;;;;4145566;28;20038;-72
2023/04/23 00:15:12;;;;;;;22.83;13.17;;;7.80;99.90;;;;;;4146248;28;20084;-71
2023/04/23 00:17:14;;;;;;;23.77;13.80;;;7.90;99.90;;;;;;4145293;28;20057;-70
2023/04/23 00:19:15;;;;;;;26.00;12.67;;;7.90;99.90;;;;;;4145932;28;20127;-68
2023/04/23 00:21:16;;;;;;;21.83;13.70;;;7.90;99.90;;;;;;4145457;28;20372;-70
2023/04/23 00:23:17;;;;;;;24.70;13.37;;;7.90;99.90;;;;;;4151489;28;20417;-68
2023/04/23 00:25:18;;;;;;;22.73;13.27;;;7.90;99.90;;;;;;4145385;28;21092;-69
2023/04/23 00:27:20;;;;;;;30.23;13.90;;;8.00;99.90;;;;;;4145848;28;20037;-65
2023/04/23 00:29:21;;;;;;;21.67;12.07;;;8.00;99.90;;;;;;4156953;28;20041;-70
2023/04/23 00:31:23;;;;;;;28.13;12.73;;;8.00;99.90;;;;;;4162620;28;20481;-70
2023/04/23 00:33:24;;;;;;;23.53;12.33;;;8.00;99.90;;;;;;4161458;28;20044;-70
2023/04/23 00:35:25;;;;;;;25.20;13.10;;;8.10;99.90;;;;;;4161854;28;20547;-72
2023/04/23 00:37:26;;;;;;;25.47;12.73;;;8.10;99.90;;;;;;4159129;28;20034;-72
2023/04/23 00:39:27;;;;;;;24.30;12.73;;;8.10;99.90;;;;;;4162014;28;20026;-71
2023/04/23 00:41:29;;;;;;;24.23;14.17;;;8.10;99.90;;;;;;4161780;28;20021;-70
2023/04/23 00:43:30;;;;;;;24.93;12.00;;;8.10;99.90;;;;;;4161381;28;20481;-70
2023/04/23 00:45:32;;;;;;;24.40;12.37;;;8.10;99.90;;;;;;4151821;28;20100;-69
2023/04/23 00:47:34;;;;;;;25.10;12.90;;;8.10;99.90;;;;;;4145125;28;20084;-72
2023/04/23 00:49:38;;;;;;;28.43;13.37;;;8.00;99.90;;;;;;4146258;28;20052;-68
2023/04/23 00:51:39;;;;;;;28.30;13.67;;;8.00;99.90;;;;;;4144800;28;20050;-72
2023/04/23 00:53:40;;;;;;;28.27;14.50;;;7.90;99.90;;;;;;4147045;28;20030;-68
2023/04/23 00:55:41;;;;;;;25.23;13.30;;;7.90;99.90;;;;;;4144994;28;20076;-69
2023/04/23 00:57:43;;;;;;;30.20;13.93;;;7.80;99.90;;;;;;4145969;28;20432;-72
2023/04/23 00:59:44;;;;;;;28.27;14.53;;;7.70;99.90;;;;;;4144816;28;20056;-69
2023/04/23 01:01:46;;;;;;;21.50;12.27;;;7.70;99.90;;;;;;4145862;28;20425;-72
2023/04/23 01:03:49;;;;;;;25.97;14.00;;;7.70;99.90;;;;;;4144785;28;20445;-71
2023/04/23 01:05:51;;;;;;;23.50;13.10;;;7.70;99.90;;;;;;4145269;28;20379;-70
2023/04/23 01:07:53;;;;;;;25.77;12.80;;;7.70;99.90;;;;;;4148133;28;20116;-69
2023/04/23 01:09:55;;;;;;;32.60;14.67;;;7.70;99.90;;;;;;4127942;28;20518;-72
2023/04/23 01:11:57;;;;;;;21.30;12.53;;;7.60;99.90;;;;;;4152353;28;20025;-71
2023/04/23 01:13:58;;;;;;;26.97;12.73;;;7.60;99.90;;;;;;4160910;28;20041;-69
2023/04/23 01:16:00;;;;;;;30.60;14.27;;;7.50;99.90;;;;;;4161047;28;20026;-70
2023/04/23 01:18:03;;;;;;;22.70;13.23;;;7.50;99.90;;;;;;4160415;28;20091;-68
2023/04/23 01:20:08;;;;;;;26.53;13.70;;;7.50;99.90;;;;;;4161226;28;20049;-69
2023/04/23 01:22:13;;;;;;;26.97;14.87;;;7.50;99.90;;;;;;4154491;28;20037;-71
2023/04/23 01:24:14;;;;;;;24.43;13.80;;;7.50;99.90;;;;;;4127788;28;20073;-71
2023/04/23 01:26:17;;;;;;;27.70;13.33;;;7.50;99.90;;;;;;4152520;28;20452;-71
2023/04/23 01:28:20;;;;;;;27.80;13.93;;;7.50;99.90;;;;;;4161175;28;20039;-69
2023/04/23 01:30:21;;;;;;;31.77;15.20;;;7.40;99.90;;;;;;4155568;28;20453;-70
2023/04/23 01:32:22;;;;;;;23.80;13.57;;;7.40;99.90;;;;;;4161787;28;20025;-70
2023/04/23 01:34:24;;;;;;;25.97;14.43;;;7.40;99.90;;;;;;4143196;28;20084;-71
2023/04/23 01:36:25;;;;;;;24.70;13.93;;;7.40;99.90;;;;;;4161862;28;20083;-69
2023/04/23 01:38:29;;;;;;;27.50;14.27;;;7.40;99.90;;;;;;4158124;28;20061;-63
2023/04/23 01:40:31;;;;;;;27.63;14.40;;;7.50;99.90;;;;;;4161818;28;20428;-72
2023/04/23 01:42:32;;;;;;;28.23;14.37;;;7.50;99.90;;;;;;4149767;28;20037;-67
2023/04/23 01:44:34;;;;;;;26.23;15.17;;;7.50;99.90;;;;;;4145540;28;20034;-65
2023/04/23 01:46:35;;;;;;;27.73;15.00;;;7.50;99.90;;;;;;4143767;28;20163;-69
2023/04/23 01:48:37;;;;;;;28.07;14.73;;;7.50;99.90;;;;;;4145150;28;20030;-72
2023/04/23 01:50:39;;;;;;;27.33;14.77;;;7.50;99.90;;;;;;4144699;28;20116;-71
2023/04/23 01:52:41;;;;;;;28.33;15.83;;;7.60;99.90;;;;;;4144810;28;20076;-71
2023/04/23 01:54:42;;;;;;;28.17;16.03;;;7.60;99.90;;;;;;4144885;28;20026;-70
2023/04/23 01:56:43;;;;;;;24.57;15.10;;;7.60;99.90;;;;;;4148929;28;20091;-70
2023/04/23 01:58:44;;;;;;;32.63;16.30;;;7.50;99.90;;;;;;4161276;28;20037;-67
2023/04/23 02:00:46;;;;;;;32.17;16.97;;;7.50;99.90;;;;;;4160378;28;20528;-67
2023/04/23 02:02:47;;;;;;;25.53;15.40;;;7.50;99.90;;;;;;4161582;28;20029;-67
2023/04/23 02:04:51;;;;;;;32.10;16.20;;;7.50;99.90;;;;;;4159766;28;20041;-70
2023/04/23 02:06:52;;;;;;;27.83;15.73;;;7.50;99.90;;;;;;4143913;28;20042;-67
2023/04/23 02:08:54;;;;;;;25.93;15.37;;;7.60;99.90;;;;;;4149744;28;20050;-70
2023/04/23 02:10:55;;;;;;;28.63;16.10;;;7.70;99.90;;;;;;4156483;28;20104;-68
2023/04/23 02:12:57;;;;;;;29.70;15.40;;;7.70;99.90;;;;;;4147140;28;20383;-69
2023/04/23 02:14:59;;;;;;;28.10;15.17;;;7.70;99.90;;;;;;4144323;28;20034;-71
2023/04/23 02:17:01;;;;;;;27.93;15.47;;;7.80;99.90;;;;;;4143499;28;20050;-71
2023/04/23 02:19:02;;;;;;;27.73;14.57;;;7.70;99.90;;;;;;4144954;28;20433;-66
2023/04/23 02:21:03;;;;;;;25.67;14.33;;;7.80;99.90;;;;;;4144842;28;20433;-71
2023/04/23 02:23:05;;;;;;;29.73;14.17;;;7.90;99.90;;;;;;4145033;28;20022;-71
2023/04/23 02:25:07;;;;;;;26.77;14.80;;;7.90;99.90;;;;;;4160966;28;20087;-71
2023/04/23 02:27:08;;;;;;;26.50;14.03;;;7.90;99.90;;;;;;4163749;28;20480;-71
2023/04/23 02:29:09;;;;;;;24.73;14.57;;;8.00;99.90;;;;;;4164282;28;20025;-71
2023/04/23 02:31:10;;;;;;;27.67;15.17;;;8.00;99.90;;;;;;4157999;28;20095;-69
2023/04/23 02:33:12;;;;;;;25.87;14.27;;;7.90;99.90;;;;;;4162855;28;20366;-67
2023/04/23 02:35:13;;;;;;;33.23;14.97;;;7.90;99.90;;;;;;4163310;28;20447;-68
2023/04/23 02:37:14;;;;;;;27.93;15.67;;;7.80;99.90;;;;;;4162790;28;20087;-67
2023/04/23 02:39:15;;;;;;;27.30;15.17;;;7.80;99.90;;;;;;4148166;28;20057;-67
2023/04/23 02:41:16;;;;;;;25.80;14.77;;;7.80;99.90;;;;;;4147455;28;20078;-67
2023/04/23 02:43:17;;;;;;;32.77;15.77;;;7.70;99.90;;;;;;4146896;28;20034;-71
2023/04/23 02:45:18;;;;;;;31.87;15.53;;;7.70;99.90;;;;;;4147488;28;20045;-70
2023/04/23 02:47:19;;;;;;;27.47;15.40;;;7.50;99.90;;;;;;4149155;28;20038;-69
2023/04/23 02:49:20;;;;;;;28.93;15.90;;;7.50;99.90;;;;;;4147834;28;20560;-71
2023/04/23 02:51:22;;;;;;;26.23;15.93;;;7.50;99.90;;;;;;4147081;28;20029;-66
2023/04/23 02:53:23;;;;;;;25.73;15.00;;;7.60;99.90;;;;;;4147346;28;20060;-71
2023/04/23 02:55:30;;;;;;;31.23;17.03;;;7.60;99.90;;;;;;4147444;28;20076;-70
2023/04/23 02:57:32;;;;;;;40.57;16.43;;;7.60;99.90;;;;;;4147039;28;20037;-67
2023/04/23 02:59:33;;;;;;;37.50;16.40;;;7.50;99.90;;;;;;4148127;28;20654;-70
2023/04/23 03:01:34;;;;;;;35.23;16.83;;;7.50;99.90;;;;;;4156226;28;20033;-70
2023/04/23 03:03:35;;;;;;;27.83;16.83;;;7.40;99.90;;;;;;4140270;28;20022;-68
2023/04/23 03:05:36;;;;;;;29.80;16.77;;;7.40;99.90;;;;;;4162454;28;20535;-66
2023/04/23 03:07:38;;;;;;;31.13;15.27;;;7.30;99.90;;;;;;4147786;28;20042;-71
2023/04/23 03:09:41;;;;;;;34.90;16.67;;;7.30;99.90;;;;;;4146522;28;20056;-69
2023/04/23 03:11:42;;;;;;;30.97;16.70;;;7.20;99.90;;;;;;4147649;28;20018;-70
2023/04/23 03:13:44;;;;;;;30.23;15.23;;;7.20;99.90;;;;;;4146497;28;20057;-71
2023/04/23 03:15:45;;;;;;;28.10;15.27;;;7.20;99.90;;;;;;4147105;28;20029;-67
2023/04/23 03:17:46;;;;;;;24.17;14.90;;;7.30;99.90;;;;;;4146998;28;20060;-70
2023/04/23 03:19:47;;;;;;;25.23;13.93;;;7.30;99.90;;;;;;4147017;28;20050;-70
2023/04/23 03:21:49;;;;;;;29.73;16.33;;;7.30;99.90;;;;;;4155800;28;20579;-70
2023/04/23 03:23:50;;;;;;;27.53;13.97;;;7.30;99.90;;;;;;4163102;28;20021;-67
2023/04/23 03:25:51;;;;;;;29.13;15.60;;;7.40;99.90;;;;;;4162995;28;20025;-69
2023/04/23 03:27:53;;;;;;;28.30;15.43;;;7.30;99.90;;;;;;4163167;28;20021;-71
2023/04/23 03:29:54;;;;;;;25.03;15.53;;;7.30;99.90;;;;;;4151578;28;20081;-68
2023/04/23 03:31:55;;;;;;;29.60;16.80;;;7.40;99.90;;;;;;4147250;28;20140;-67
2023/04/23 03:33:56;;;;;;;27.90;14.93;;;7.40;99.90;;;;;;4159655;28;20061;-70
2023/04/23 03:35:58;;;;;;;22.57;13.77;;;7.50;99.90;;;;;;4148992;28;20089;-65
2023/04/23 03:37:59;;;;;;;25.17;13.00;;;7.50;99.90;;;;;;4147145;28;20038;-67
2023/04/23 03:40:05;;;;;;;23.83;12.47;;;7.60;99.90;;;;;;4146029;28;20084;-70
2023/04/23 03:42:06;;;;;;;22.07;12.03;;;7.60;99.90;;;;;;4147151;28;20038;-65
2023/04/23 03:44:08;;;;;;;19.47;11.60;;;7.70;99.90;;;;;;4146048;28;20088;-70
2023/04/23 03:46:09;;;;;;;23.97;11.23;;;7.70;99.90;;;;;;4147914;28;20033;-68
2023/04/23 03:48:10;;;;;;;16.97;10.23;;;7.70;99.90;;;;;;4145811;28;20034;-71
2023/04/23 03:50:12;;;;;;;18.00;9.47;;;7.80;99.90;;;;;;4147149;28;20038;-69
2023/04/23 03:52:13;;;;;;;11.20;7.67;;;7.80;99.90;;;;;;4152050;28;20088;-69
2023/04/23 03:54:14;;;;;;;14.33;8.57;;;7.90;99.90;;;;;;4162173;28;20037;-68
2023/04/23 03:56:15;;;;;;;17.53;10.07;;;7.90;99.90;;;;;;4162322;28;20123;-70
2023/04/23 03:58:17;;;;;;;15.80;9.20;;;8.00;99.90;;;;;;4162726;28;20033;-65
2023/04/23 04:00:18;;;;;;;15.27;9.37;;;8.00;99.90;;;;;;4160698;28;20058;-65
2023/04/23 04:02:19;;;;;;;15.03;9.07;;;8.00;99.90;;;;;;4143958;28;20505;-67
2023/04/23 04:04:20;;;;;;;15.17;8.50;;;8.00;99.90;;;;;;4162004;28;20634;-63
2023/04/23 04:06:21;;;;;;;15.63;9.13;;;8.20;99.90;;;;;;4161154;28;20030;-69
2023/04/23 04:08:23;;;;;;;15.23;9.17;;;8.20;99.90;;;;;;4163040;28;20076;-70
2023/04/23 04:10:24;;;;;;;17.23;9.13;;;8.20;99.90;;;;;;4161976;28;20482;-70
2023/04/23 04:12:25;;;;;;;14.27;9.53;;;8.50;99.90;;;;;;4150079;28;20029;-67
2023/04/23 04:14:26;;;;;;;13.67;9.03;;;8.90;99.90;;;;;;4157053;28;20022;-70
2023/04/23 04:16:27;;;;;;;18.13;9.17;;;9.30;99.90;;;;;;4162259;28;20571;-71
2023/04/23 04:18:28;;;;;;;22.67;10.10;;;9.80;99.90;;;;;;4151301;28;20425;-71
2023/04/23 04:20:29;;;;;;;23.47;10.33;;;10.00;99.90;;;;;;4146649;28;20370;-71
2023/04/23 04:22:30;;;;;;;20.17;10.07;;;10.10;99.90;;;;;;4145721;28;20034;-69
2023/04/23 04:24:32;;;;;;;19.40;8.90;;;10.10;99.90;;;;;;4146179;28;20030;-71
2023/04/23 04:26:33;;;;;;;12.70;8.93;;;10.10;99.90;;;;;;4145489;28;20026;-72
2023/04/23 04:28:36;;;;;;;14.33;9.00;;;10.00;99.90;;;;;;4145801;28;20030;-68
2023/04/23 04:30:38;;;;;;;18.57;9.20;;;10.00;99.90;;;;;;4146677;28;20488;-71
2023/04/23 04:32:39;;;;;;;14.03;8.60;;;10.00;99.90;;;;;;4146476;28;20355;-71
2023/04/23 04:34:40;;;;;;;11.83;8.20;;;9.90;99.90;;;;;;4149090;28;20470;-64
2023/04/23 04:36:41;;;;;;;15.93;8.43;;;9.90;99.90;;;;;;4146179;28;20092;-61
2023/04/23 04:38:42;;;;;;;14.57;8.47;;;9.90;99.90;;;;;;4146253;28;20026;-70
2023/04/23 04:40:44;;;;;;;17.20;9.03;;;9.80;99.90;;;;;;4145174;28;20056;-64
2023/04/23 04:42:45;;;;;;;17.80;9.60;;;9.80;99.90;;;;;;4158103;28;20064;-68
2023/04/23 04:44:47;;;;;;;12.43;8.87;;;9.80;99.90;;;;;;4161412;28;20083;-71
2023/04/23 04:46:48;;;;;;;16.53;9.60;;;9.80;99.90;;;;;;4162268;28;20099;-70
2023/04/23 04:48:49;;;;;;;19.70;10.33;;;9.70;99.90;;;;;;4159417;28;20033;-72
2023/04/23 04:50:51;;;;;;;17.80;10.37;;;9.70;99.90;;;;;;4155374;28;20441;-71
2023/04/23 04:52:52;;;;;;;19.10;10.17;;;9.60;99.90;;;;;;4157167;28;20551;-68
2023/04/23 04:54:53;;;;;;;15.00;9.97;;;9.60;99.90;;;;;;4162195;28;20034;-71
2023/04/23 04:56:54;;;;;;;17.30;10.37;;;9.60;99.90;;;;;;4161067;28;20037;-71
2023/04/23 04:58:55;;;;;;;16.33;10.70;;;9.50;99.90;;;;;;4161794;28;20029;-70
2023/04/23 05:00:58;;;;;;;20.07;10.40;;;9.50;99.90;;;;;;4159653;28;20857;-70
2023/04/23 05:02:59;;;;;;;21.20;10.93;;;9.40;99.90;;;;;;4161613;28;20025;-72
2023/04/23 05:05:00;;;;;;;17.20;9.07;;;9.40;99.90;;;;;;4161811;28;20083;-70
2023/04/23 05:07:02;;;;;;;21.00;10.70;;;9.30;99.90;;;;;;4158961;28;20018;-71
2023/04/23 05:09:03;;;;;;;13.57;9.53;;;9.30;99.90;;;;;;4161301;28;20050;-69
2023/04/23 05:11:04;;;;;;;15.33;9.30;;;9.20;99.90;;;;;;4160919;28;20428;-69
2023/04/23 05:13:05;;;;;;;16.97;9.87;;;9.30;99.90;;;;;;4143927;28;20049;-70
2023/04/23 05:15:14;;;;;;;16.77;10.03;;;9.10;99.90;;;;;;4160721;28;20091;-62
2023/04/23 05:17:15;;;;;;;21.07;9.80;;;9.00;99.90;;;;;;4160981;28;20057;-67
2023/04/23 05:19:16;;;;;;;14.17;9.13;;;9.00;99.90;;;;;;4160761;28;20653;-65
2023/04/23 05:21:18;;;;;;;15.90;8.53;;;9.00;99.90;;;;;;4161232;28;20053;-64
2023/04/23 05:23:19;;;;;;;15.03;8.40;;;8.90;99.90;;;;;;4161240;28;20037;-64
2023/04/23 05:25:20;;;;;;;16.37;9.00;;;8.90;99.90;;;;;;4161123;28;20090;-63
2023/04/23 05:27:22;;;;;;;21.60;9.20;;;8.90;99.90;;;;;;4160232;28;20041;-71
2023/04/23 05:29:24;;;;;;;15.37;9.87;;;9.10;99.90;;;;;;4161633;28;20160;-66
2023/04/23 05:31:25;;;;;;;16.37;10.57;;;9.10;99.90;;;;;;4160713;28;20029;-62
2023/04/23 05:33:27;;;;;;;20.50;10.97;;;9.20;99.90;;;;;;4159247;28;20095;-61
2023/04/23 05:35:28;;;;;;;13.03;8.93;;;9.20;99.90;;;;;;4153686;28;20491;-67
2023/04/23 05:37:29;;;;;;;15.60;9.47;;;9.30;99.90;;;;;;4154843;28;20026;-63
2023/04/23 05:39:30;;;;;;;13.13;8.90;;;9.40;99.90;;;;;;4144972;28;20046;-63
2023/04/23 05:41:32;;;;;;;13.00;8.60;;;9.50;99.90;;;;;;4144171;28;20038;-68
2023/04/23 05:43:33;;;;;;;14.33;8.73;;;9.50;99.90;;;;;;4145485;28;20104;-65
2023/04/23 05:45:34;;;;;;;17.03;8.20;;;9.60;99.90;;;;;;4145192;28;20057;-70
2023/04/23 05:47:36;;;;;;;16.03;8.33;;;9.60;99.90;;;;;;4145323;28;20103;-69
2023/04/23 05:49:37;;;;;;;14.50;8.27;;;9.60;99.90;;;;;;4143522;28;20041;-71
2023/04/23 05:51:38;;;;;;;11.77;8.27;;;9.70;99.90;;;;;;4146104;28;20469;-69
2023/04/23 05:53:39;;;;;;;19.07;8.33;;;9.80;99.90;;;;;;4144981;28;20030;-70
2023/04/23 05:55:40;;;;;;;15.03;8.30;;;9.90;99.90;;;;;;4157205;28;20041;-70
2023/04/23 05:57:41;;;;;;;13.63;8.17;;;9.90;99.90;;;;;;4155791;28;20568;-70
2023/04/23 05:59:42;;;;;;;13.97;7.73;;;9.90;99.90;;;;;;4148271;28;20076;-70
2023/04/23 06:01:43;;;;;;;11.77;7.77;;;9.90;99.90;;;;;;4147026;28;20116;-72
2023/04/23 06:03:45;;;;;;;13.60;8.13;;;9.90;99.90;;;;;;4148172;28;20037;-71
2023/04/23 06:05:46;;;;;;;10.57;8.03;;;10.00;99.90;;;;;;4147843;28;20427;-71
2023/04/23 06:07:48;;;;;;;11.90;7.53;;;10.00;99.90;;;;;;4147643;28;20084;-70
2023/04/23 06:09:49;;;;;;;13.53;7.93;;;10.00;99.90;;;;;;4147784;28;20045;-71
2023/04/23 06:11:52;;;;;;;12.77;7.23;;;10.00;99.90;;;;;;4147289;28;20021;-70
2023/04/23 06:13:55;;;;;;;14.93;8.07;;;10.10;99.90;;;;;;4134478;28;20073;-71
2023/04/23 06:15:58;;;;;;;11.23;7.93;;;10.10;99.90;;;;;;4162500;28;20473;-63
2023/04/23 06:17:59;;;;;;;13.40;8.20;;;10.00;99.90;;;;;;4163991;28;20531;-78
2023/04/23 06:20:03;;;;;;;15.67;9.10;;;10.00;99.90;;;;;;4153614;28;20553;-66
2023/04/23 06:22:05;;;;;;;14.37;7.77;;;10.00;99.90;;;;;;4159382;28;20029;-70
2023/04/23 06:24:06;;;;;;;16.17;8.13;;;10.00;99.90;;;;;;4147157;28;20038;-73
2023/04/23 06:26:08;;;;;;;12.57;7.77;;;10.00;99.90;;;;;;4150029;28;20026;-72
2023/04/23 06:28:09;;;;;;;12.37;7.43;;;10.10;99.90;;;;;;4162934;28;20546;-70
2023/04/23 06:30:10;;;;;;;12.43;7.40;;;10.10;99.90;;;;;;4164603;28;20029;-71
2023/04/23 06:32:11;;;;;;;12.70;7.17;;;10.10;99.90;;;;;;4163141;28;20492;-65
2023/04/23 06:34:13;;;;;;;12.43;7.83;;;10.10;99.90;;;;;;4146117;28;20545;-69
2023/04/23 06:36:14;;;;;;;12.07;7.70;;;10.10;99.90;;;;;;4163398;28;20045;-66
2023/04/23 06:38:17;;;;;;;20.70;8.47;;;10.10;99.90;;;;;;4161556;28;20033;-69
2023/04/23 06:40:18;;;;;;;13.63;8.20;;;10.10;99.90;;;;;;4147473;28;20038;-64
2023/04/23 06:42:19;;;;;;;16.57;8.63;;;10.20;99.90;;;;;;4146920;28;20104;-64
2023/04/23 06:44:20;;;;;;;14.30;8.87;;;10.20;99.90;;;;;;4147639;28;20359;-70
2023/04/23 06:46:21;;;;;;;16.00;8.87;;;10.10;99.90;;;;;;4146547;28;20026;-62
2023/04/23 06:48:24;;;;;;;13.77;7.80;;;10.20;99.90;;;;;;4161445;28;20029;-68
2023/04/23 06:50:26;;;;;;;16.20;8.60;;;10.20;99.90;;;;;;4160275;28;20026;-66
2023/04/23 06:52:27;;;;;;;16.40;8.47;;;10.30;99.90;;;;;;4163265;28;20098;-68
2023/04/23 06:54:28;;;;;;;18.87;8.70;;;10.30;99.90;;;;;;4163183;28;20879;-68
2023/04/23 06:56:30;;;;;;;13.87;8.40;;;10.30;99.90;;;;;;4163908;28;20501;-67
2023/04/23 06:58:31;;;;;;;19.67;9.33;;;10.30;99.90;;;;;;4157940;28;20080;-69
2023/04/23 07:00:32;;;;;;;13.63;8.77;;;10.30;99.90;;;;;;4151785;28;20100;-68
2023/04/23 07:02:34;;;;;;;18.90;9.10;;;10.40;99.90;;;;;;4146607;28;20042;-67
2023/04/23 07:04:35;;;;;;;21.93;10.43;;;10.40;99.90;;;;;;4146907;28;20030;-63
2023/04/23 07:06:36;;;;;;;15.60;9.17;;;10.40;99.90;;;;;;4145919;28;20042;-65
2023/04/23 07:08:38;;;;;;;17.80;9.10;;;10.50;99.90;;;;;;4147612;28;20042;-68
2023/04/23 07:10:39;;;;;;;24.03;9.43;;;10.60;99.90;;;;;;4154938;28;20037;-69
2023/04/23 07:12:40;;;;;;;15.57;8.60;;;10.70;99.90;;;;;;4161061;28;20038;-68
2023/04/23 07:14:42;;;;;;;19.57;9.70;;;10.80;99.90;;;;;;4154440;28;20082;-68
2023/04/23 07:16:43;;;;;;;18.37;8.60;;;10.90;99.90;;;;;;4158555;28;20111;-68
2023/04/23 07:18:44;;;;;;;16.13;8.77;;;11.00;99.90;;;;;;4150582;28;20367;-67
2023/04/23 07:20:45;;;;;;;22.20;8.70;;;11.00;99.90;;;;;;4157765;28;20103;-66
2023/04/23 07:22:47;;;;;;;18.73;8.47;;;11.00;99.90;;;;;;4161852;28;20080;-67
2023/04/23 07:24:48;;;;;;;18.03;9.10;;;11.10;99.90;;;;;;4145530;28;20037;-63
2023/04/23 07:26:49;;;;;;;20.00;9.63;;;11.10;99.90;;;;;;4146881;28;20030;-68
2023/04/23 07:28:50;;;;;;;16.33;8.33;;;11.20;99.90;;;;;;4146068;28;20079;-70
2023/04/23 07:30:51;;;;;;;16.63;9.53;;;11.20;99.90;;;;;;4147093;28;20084;-65
2023/04/23 07:32:54;;;;;;;12.93;8.40;;;11.30;99.90;;;;;;4146105;28;20030;-68
2023/04/23 07:34:55;;;;;;;13.20;7.83;;;11.30;99.90;;;;;;4146606;28;20026;-69
2023/04/23 07:36:56;;;;;;;12.70;8.03;;;11.40;99.90;;;;;;4146805;28;20421;-71
2023/04/23 07:38:57;;;;;;;16.97;8.20;;;11.40;99.90;;;;;;4146767;28;20038;-67
2023/04/23 07:40:59;;;;;;;12.67;7.50;;;11.50;99.90;;;;;;4145740;28;20049;-68
2023/04/23 07:43:00;;;;;;;12.23;7.93;;;11.50;99.90;;;;;;4127861;28;20399;-64
2023/04/23 07:45:01;;;;;;;13.40;7.73;;;11.50;99.90;;;;;;4145498;28;20553;-70
2023/04/23 07:47:02;;;;;;;10.37;7.10;;;11.60;99.90;;;;;;4145584;28;20077;-67
2023/04/23 07:49:03;;;;;;;15.47;8.23;;;11.60;99.90;;;;;;4146256;28;20026;-67
2023/04/23 07:51:05;;;;;;;16.87;9.07;;;11.60;99.90;;;;;;4145178;28;20065;-66
2023/04/23 07:53:06;;;;;;;13.47;8.87;;;11.60;99.90;;;;;;4146676;28;20050;-69
2023/04/23 07:55:08;;;;;;;13.17;8.20;;;11.50;99.90;;;;;;4145087;28;20119;-67
2023/04/23 07:57:10;;;;;;;12.97;8.43;;;11.50;99.90;;;;;;4146847;28;20426;-67
2023/04/23 07:59:11;;;;;;;13.13;8.10;;;11.50;99.90;;;;;;4144815;28;20108;-69
2023/04/23 08:01:12;;;;;;;12.33;8.40;;;11.50;99.90;;;;;;4150162;28;20050;-64
2023/04/23 08:03:13;;;;;;;11.37;7.70;;;11.70;99.90;;;;;;4145371;28;20033;-68
2023/04/23 08:05:15;;;;;;;17.63;7.27;;;11.80;99.90;;;;;;4146368;28;20145;-68
2023/04/23 08:07:16;;;;;;;10.60;7.20;;;11.80;99.90;;;;;;4149471;28;20540;-67
2023/04/23 08:09:17;;;;;;;10.03;7.70;;;11.80;99.90;;;;;;4145939;28;20034;-65
2023/04/23 08:11:18;;;;;;;10.73;7.80;;;11.90;99.90;;;;;;4144996;28;20437;-68
2023/04/23 08:13:19;;;;;;;14.43;7.60;;;12.00;99.90;;;;;;4149136;28;20087;-67
2023/04/23 08:15:20;;;;;;;11.30;7.20;;;12.10;99.90;;;;;;4160177;28;20046;-66
2023/04/23 08:17:21;;;;;;;10.83;7.57;;;12.10;99.90;;;;;;4159314;28;20103;-70
2023/04/23 08:19:23;;;;;;;9.13;6.17;;;12.20;99.90;;;;;;4161949;28;20508;-71
2023/04/23 08:21:25;;;;;;;10.63;6.67;;;12.30;99.90;;;;;;4161084;28;20079;-72
2023/04/23 08:23:27;;;;;;;13.27;7.67;;;12.40;99.90;;;;;;4161705;28;20025;-74
2023/04/23 08:25:28;;;;;;;13.03;7.37;;;12.50;99.90;;;;;;4161226;28;20481;-71
2023/04/23 08:27:29;;;;;;;10.57;7.10;;;12.60;99.90;;;;;;4162395;28;20041;-68
2023/04/23 08:29:30;;;;;;;11.67;7.33;;;12.70;99.90;;;;;;4161272;28;20367;-66
2023/04/23 08:31:32;;;;;;;11.67;7.17;;;12.70;99.90;;;;;;4158106;28;20055;-62
2023/04/23 08:33:33;;;;;;;8.80;6.83;;;12.80;99.90;;;;;;4145076;28;20030;-61
2023/04/23 08:35:34;;;;;;;11.13;7.40;;;13.00;99.90;;;;;;4156751;28;20102;-68
2023/04/23 08:37:35;;;;;;;11.10;7.40;;;13.20;99.90;;;;;;4151664;28;20092;-68
2023/04/23 08:39:37;;;;;;;7.70;6.60;;;13.20;99.90;;;;;;4146540;28;20096;-70
2023/04/23 08:41:41;;;;;;;9.70;6.23;;;13.20;99.90;;;;;;4145091;28;20038;-72
2023/04/23 08:43:43;;;;;;;9.20;6.13;;;13.20;99.90;;;;;;4148627;28;20038;-64
2023/04/23 08:45:48;;;;;;;10.53;6.43;;;13.30;99.90;;;;;;4154130;28;20072;-68
2023/04/23 08:47:49;;;;;;;9.27;6.47;;;13.40;99.90;;;;;;4144993;28;20561;-62
2023/04/23 08:49:53;;;;;;;10.70;7.10;;;13.50;99.90;;;;;;4151706;28;20030;-62
2023/04/23 08:52:02;;;;;;;10.27;6.80;;;13.60;99.90;;;;;;4144667;28;20022;-61
2023/04/23 08:54:04;;;;;;;13.83;6.17;;;13.70;99.90;;;;;;4146040;28;20030;-69
2023/04/23 08:56:06;;;;;;;8.73;6.47;;;13.80;99.90;;;;;;4144295;28;20465;-65
2023/04/23 08:58:08;;;;;;;13.47;6.60;;;13.80;99.90;;;;;;4145748;28;20022;-64
2023/04/23 09:00:11;;;;;;;11.83;7.30;;;14.00;99.90;;;;;;4144450;28;20096;-70
2023/04/23 09:02:14;;;;;;;13.10;7.40;;;14.30;99.90;;;;;;4151945;28;20041;-58
2023/04/23 09:04:15;;;;;;;12.53;7.33;;;14.50;99.90;;;;;;4158307;28;20559;-68
2023/04/23 09:06:18;;;;;;;11.67;6.33;;;14.80;99.90;;;;;;4147725;28;20456;-72
2023/04/23 09:08:20;;;;;;;10.60;5.87;;;15.00;99.90;;;;;;4159655;28;20092;-69
2023/04/23 09:10:22;;;;;;;9.73;6.13;;;15.30;99.90;;;;;;4160865;28;20033;-73
2023/04/23 09:12:24;;;;;;;12.83;6.40;;;15.40;99.90;;;;;;4159828;28;20025;-73
2023/04/23 09:14:25;;;;;;;7.70;5.83;;;15.50;99.90;;;;;;4150499;28;20046;-69
2023/04/23 09:16:26;;;;;;;10.00;6.53;;;15.60;99.90;;;;;;4149143;28;20378;-65
2023/04/23 09:18:28;;;;;;;9.75;6.20;;;15.80;99.90;;;;;;4144758;28;20490;-70
2023/04/23 09:20:29;;;;;;;14.75;5.68;;;15.70;99.90;;;;;;4144523;28;20049;-62
2023/04/23 09:22:37;;;;;;;9.27;5.85;;;15.60;99.90;;;;;;4144062;28;20488;-65
2023/04/23 09:24:42;;;;;;;14.38;8.40;;;15.60;99.90;;;;;;4145040;28;20470;-61
2023/04/23 09:26:48;;;;;;;8.32;6.53;;;15.40;99.90;;;;;;4144182;28;20018;-69
2023/04/23 09:28:52;;;;;;;7.85;5.93;;;15.50;99.90;;;;;;4141446;28;20053;-69
2023/04/23 09:30:53;;;;;;;9.07;5.82;;;15.60;99.90;;;;;;4143027;28;20130;-70
2023/04/23 09:32:55;;;;;;;7.72;5.88;;;15.80;99.90;;;;;;4144298;28;20072;-67
2023/04/23 09:34:56;;;;;;;10.82;6.13;;;;;;;;;;4143650;28;20073;-65
2023/04/23 09:36:59;;;;;;;7.85;4.90;;;;;;;;;;4148554;28;20037;-69
2023/04/23 09:39:00;;;;;;;6.00;4.72;;;15.90;99.80;;;;;;4147713;28;20083;-72
2023/04/23 09:41:24;;;;;;;6.97;4.40;;;;;;;;;;4157696;28;20464;-72
2023/04/23 09:43:29;;;;;;;7.18;4.28;;;;;;;;;;4159436;28;20033;-73
2023/04/23 09:45:31;;;;;;;6.47;4.30;;;;;;;;;;4160923;28;20029;-73
2023/04/23 09:47:34;;;;;;;6.60;4.10;;;;;;;;;;4156345;28;20071;-66
2023/04/23 09:49:45;;;;;;;5.00;4.10;;;;;;;;;;4157556;28;20509;-66
2023/04/23 09:51:48;;;;;;;9.38;4.30;;;;;;;;;;4152987;28;20587;-72
2023/04/23 09:53:49;;;;;;;6.53;4.35;;;;;;;;;;4159464;28;20079;-69
2023/04/23 09:55:52;;;;;;;7.93;4.72;;;16.00;98.50;;;;;;4159746;28;20464;-72
2023/04/23 09:57:53;;;;;;;8.95;4.95;;;16.10;97.40;;;;;;4156576;28;20440;-72
2023/04/23 09:59:57;;;;;;;6.32;4.47;;;16.10;97.40;;;;;;4158264;28;20017;-72
2023/04/23 10:02:02;;;;;;;6.10;4.10;;;16.10;97.40;;;;;;4160998;28;20042;-72
2023/04/23 10:04:03;;;;;;;9.55;4.45;;;;;;;;;;4149176;28;20025;-70
2023/04/23 10:06:05;;;;;;;8.90;4.15;;;;;;;;;;4145758;28;20030;-74
2023/04/23 10:08:07;;;;;;;6.53;4.82;;;;;;;;;;4151966;28;20057;-63
2023/04/23 10:10:08;;;;;;;8.38;4.57;;;;;;;;;;4143663;28;20187;-61
2023/04/23 10:12:10;;;;;;;7.88;3.95;;;;;;;;;;4145671;28;20087;-62
2023/04/23 10:14:12;;;;;;;6.65;4.47;;;;;;;;;;4143510;28;20046;-70
2023/04/23 10:16:13;;;;;;;10.10;4.93;;;;;;;;;;4126828;28;20034;-76
2023/04/23 10:18:15;;;;;;;5.85;4.40;;;;;;;;;;4143591;28;20022;-77
2023/04/23 10:20:16;;;;;;;7.38;4.80;;;;;;;;;;4144270;28;20452;-73
2023/04/23 10:22:18;;;;;;;4.32;3.50;;;;;;;;;;4126182;28;20042;-74
2023/04/23 10:24:23;;;;;;;6.18;3.85;;;;;;;;;;4145178;28;20045;-72
2023/04/23 10:26:25;;;;;;;4.90;3.63;;;;;;;;;;4143825;28;20092;-76
2023/04/23 10:28:30;;;;;;;6.05;3.90;;;;;;;;;;4144879;28;20026;-72
2023/04/23 10:30:32;;;;;;;5.80;2.90;;;;;;;;;;4143544;28;20084;-75
2023/04/23 10:32:34;;;;;;;6.55;3.40;;;;;;;;;;4144390;28;20049;-73
2023/04/23 10:34:35;;;;;;;3.45;3.15;;;;;;;;;;4143709;28;20030;-76